sensor_id;sensor_type;location;lat;lon;timestamp;temperature;humidity
7000;DHT22;3540;53.242;10.408;2022-12-29T00:01:49;7.70;99.90
7000;DHT22;3540;53.242;10.408;2022-12-29T00:04:14;7.70;99.90
7000;DHT22;3540;53.242;10.408;2022-12-29T00:06:41;7.70;99.90
7000;DHT22;3540;53.242;10.408;2022-12-29T00:09:07;7.70;99.90
7000;DHT22;3540;53.242;10.408;2022-12-29T00:11:33;7.70;99.90
7000;DHT22;3540;53.242;10.408;2022-12-29T00:13:59;7.80;99.90
7000;DHT22;3540;53.242;10.408;2022-12-29T00:16:45;7.80;99.90
7000;DHT22;3540;53.242;10.408;2022-12-29T00:19:11;7.80;99.90
7000;DHT22;3540;53.242;10.408;2022-12-29T00:21:56;7.80;99.90
7000;DHT22;3540;53.242;10.408;2022-12-29T00:24:40;7.80;99.90
7000;DHT22;3540;53.242;10.408;2022-12-29T00:27:25;7.80;99.90
7000;DHT22;3540;53.242;10.408;2022-12-29T00:30:16;7.80;99.90
7000;DHT22;3540;53.242;10.408;2022-12-29T00:33:04;7.80;99.90
7000;DHT22;3540;53.242;10.408;2022-12-29T00:35:54;7.90;99.90
7000;DHT22;3540;53.242;10.408;2022-12-29T00:38:23;7.90;99.90
7000;DHT22;3540;53.242;10.408;2022-12-29T00:41:07;7.90;99.90
7000;DHT22;3540;53.242;10.408;2022-12-29T00:43:51;7.90;99.90
7000;DHT22;3540;53.242;10.408;2022-12-29T00:46:33;7.90;99.90
7000;DHT22;3540;53.242;10.408;2022-12-29T00:48:59;7.90;99.90
7000;DHT22;3540;53.242;10.408;2022-12-29T00:51:44;7.90;99.90
7000;DHT22;3540;53.242;10.408;2022-12-29T00:54:09;8.00;99.90
7000;DHT22;3540;53.242;10.408;2022-12-29T00:56:35;8.00;99.90
7000;DHT22;3540;53.242;10.408;2022-12-29T00:59:02;8.00;99.90
7000;DHT22;3540;53.242;10.408;2022-12-29T01:01:28;8.10;99.90
7000;DHT22;3540;53.242;10.408;2022-12-29T01:03:54;8.10;99.90
7000;DHT22;3540;53.242;10.408;2022-12-29T01:06:19;8.10;99.90
7000;DHT22;3540;53.242;10.408;2022-12-29T01:08:45;8.10;99.90
7000;DHT22;3540;53.242;10.408;2022-12-29T01:11:12;8.00;99.90
7000;DHT22;3540;53.242;10.408;2022-12-29T01:13:38;8.00;99.90
7000;DHT22;3540;53.242;10.408;2022-12-29T01:16:06;8.10;99.90
7000;DHT22;3540;53.242;10.408;2022-12-29T01:18:32;8.10;99.90
7000;DHT22;3540;53.242;10.408;2022-12-29T01:20:59;8.10;99.90
7000;DHT22;3540;53.242;10.408;2022-12-29T01:23:25;8.10;99.90
7000;DHT22;3540;53.242;10.408;2022-12-29T01:25:50;8.10;99.90
7000;DHT22;3540;53.242;10.408;2022-12-29T01:28:16;8.10;99.90
7000;DHT22;3540;53.242;10.408;2022-12-29T01:30:41;8.10;99.90
7000;DHT22;3540;53.242;10.408;2022-12-29T01:33:07;8.10;99.90
7000;DHT22;3540;53.242;10.408;2022-12-29T01:35:33;8.10;99.90
7000;DHT22;3540;53.242;10.408;2022-12-29T01:37:58;8.20;99.90
7000;DHT22;3540;53.242;10.408;2022-12-29T01:40:24;8.20;99.90
7000;DHT22;3540;53.242;10.408;2022-12-29T01:42:50;8.30;99.90
7000;DHT22;3540;53.242;10.408;2022-12-29T01:45:17;8.30;99.90
7000;DHT22;3540;53.242;10.408;2022-12-29T01:48:04;8.30;99.90
7000;DHT22;3540;53.242;10.408;2022-12-29T01:50:32;8.40;99.90
7000;DHT22;3540;53.242;10.408;2022-12-29T01:53:15;8.40;99.90
7000;DHT22;3540;53.242;10.408;2022-12-29T01:55:54;8.50;99.90
7000;DHT22;3540;53.242;10.408;2022-12-29T01:58:23;8.50;99.90
7000;DHT22;3540;53.242;10.408;2022-12-29T02:00:49;8.50;99.90
7000;DHT22;3540;53.242;10.408;2022-12-29T02:03:17;8.60;99.90
7000;DHT22;3540;53.242;10.408;2022-12-29T02:08:28;8.60;99.90
7000;DHT22;3540;53.242;10.408;2022-12-29T02:10:53;8.60;99.90
7000;DHT22;3540;53.242;10.408;2022-12-29T02:13:20;8.60;99.90
7000;DHT22;3540;53.242;10.408;2022-12-29T02:31:08;8.70;99.90
7000;DHT22;3540;53.242;10.408;2022-12-29T02:36:47;8.70;99.90
7000;DHT22;3540;53.242;10.408;2022-12-29T02:39:23;8.80;99.90
7000;DHT22;3540;53.242;10.408;2022-12-29T02:42:01;8.80;99.90
7000;DHT22;3540;53.242;10.408;2022-12-29T02:44:42;8.70;99.90
7000;DHT22;3540;53.242;10.408;2022-12-29T02:48:09;8.80;99.90
7000;DHT22;3540;53.242;10.408;2022-12-29T02:50:11;8.80;99.90
7000;DHT22;3540;53.242;10.408;2022-12-29T02:52:46;8.80;99.90
7000;DHT22;3540;53.242;10.408;2022-12-29T02:55:15;8.80;99.90
7000;DHT22;3540;53.242;10.408;2022-12-29T02:57:41;8.80;99.90
7000;DHT22;3540;53.242;10.408;2022-12-29T03:00:10;8.80;99.90
7000;DHT22;3540;53.242;10.408;2022-12-29T03:13:46;8.90;99.90
7000;DHT22;3540;53.242;10.408;2022-12-29T03:16:39;8.90;99.90
7000;DHT22;3540;53.242;10.408;2022-12-29T03:19:30;8.90;99.90
7000;DHT22;3540;53.242;10.408;2022-12-29T03:22:05;8.90;99.90
7000;DHT22;3540;53.242;10.408;2022-12-29T03:24:54;8.90;99.90
7000;DHT22;3540;53.242;10.408;2022-12-29T03:28:11;8.90;99.90
7000;DHT22;3540;53.242;10.408;2022-12-29T03:30:11;8.90;99.90
7000;DHT22;3540;53.242;10.408;2022-12-29T03:32:42;8.90;99.90
7000;DHT22;3540;53.242;10.408;2022-12-29T03:35:12;8.90;99.90
7000;DHT22;3540;53.242;10.408;2022-12-29T03:37:43;8.90;99.90
7000;DHT22;3540;53.242;10.408;2022-12-29T03:40:10;8.90;99.90
7000;DHT22;3540;53.242;10.408;2022-12-29T03:42:37;8.90;99.90
7000;DHT22;3540;53.242;10.408;2022-12-29T03:45:04;8.90;99.90
7000;DHT22;3540;53.242;10.408;2022-12-29T03:47:31;8.90;99.90
7000;DHT22;3540;53.242;10.408;2022-12-29T03:49:56;8.90;99.90
7000;DHT22;3540;53.242;10.408;2022-12-29T03:52:22;8.90;99.90
7000;DHT22;3540;53.242;10.408;2022-12-29T03:54:48;8.90;99.90
7000;DHT22;3540;53.242;10.408;2022-12-29T03:57:13;8.90;99.90
7000;DHT22;3540;53.242;10.408;2022-12-29T03:59:39;8.80;99.90
7000;DHT22;3540;53.242;10.408;2022-12-29T04:02:04;8.80;99.90
7000;DHT22;3540;53.242;10.408;2022-12-29T04:04:30;8.80;99.90
7000;DHT22;3540;53.242;10.408;2022-12-29T04:06:55;8.80;99.90
7000;DHT22;3540;53.242;10.408;2022-12-29T04:09:21;8.80;99.90
7000;DHT22;3540;53.242;10.408;2022-12-29T04:11:47;8.80;99.90
7000;DHT22;3540;53.242;10.408;2022-12-29T04:14:12;8.90;99.90
7000;DHT22;3540;53.242;10.408;2022-12-29T04:16:38;9.10;99.90
7000;DHT22;3540;53.242;10.408;2022-12-29T04:19:07;9.10;99.90
7000;DHT22;3540;53.242;10.408;2022-12-29T04:21:33;9.10;99.90
7000;DHT22;3540;53.242;10.408;2022-12-29T04:23:59;9.10;99.90
7000;DHT22;3540;53.242;10.408;2022-12-29T04:26:25;9.10;99.90
7000;DHT22;3540;53.242;10.408;2022-12-29T04:28:51;9.10;99.90
7000;DHT22;3540;53.242;10.408;2022-12-29T04:31:16;9.10;99.90
7000;DHT22;3540;53.242;10.408;2022-12-29T04:33:42;9.10;99.90
7000;DHT22;3540;53.242;10.408;2022-12-29T04:36:08;9.00;99.90
7000;DHT22;3540;53.242;10.408;2022-12-29T04:38:34;9.00;99.90
7000;DHT22;3540;53.242;10.408;2022-12-29T04:41:00;9.00;99.90
7000;DHT22;3540;53.242;10.408;2022-12-29T04:43:26;9.00;99.90
7000;DHT22;3540;53.242;10.408;2022-12-29T04:45:52;9.00;99.90
7000;DHT22;3540;53.242;10.408;2022-12-29T04:48:17;9.00;99.90
7000;DHT22;3540;53.242;10.408;2022-12-29T04:50:43;9.00;99.90
7000;DHT22;3540;53.242;10.408;2022-12-29T04:53:09;9.00;99.90
7000;DHT22;3540;53.242;10.408;2022-12-29T04:55:35;9.00;99.90
7000;DHT22;3540;53.242;10.408;2022-12-29T04:58:01;8.90;99.90
7000;DHT22;3540;53.242;10.408;2022-12-29T05:00:26;8.90;99.90
7000;DHT22;3540;53.242;10.408;2022-12-29T05:02:52;9.00;99.90
7000;DHT22;3540;53.242;10.408;2022-12-29T05:05:18;9.00;99.90
7000;DHT22;3540;53.242;10.408;2022-12-29T05:07:44;9.00;99.90
7000;DHT22;3540;53.242;10.408;2022-12-29T05:10:10;9.00;99.90
7000;DHT22;3540;53.242;10.408;2022-12-29T05:12:36;9.00;99.90
7000;DHT22;3540;53.242;10.408;2022-12-29T05:15:04;9.00;99.90
7000;DHT22;3540;53.242;10.408;2022-12-29T05:17:30;9.00;99.90
7000;DHT22;3540;53.242;10.408;2022-12-29T05:19:55;9.00;99.90
7000;DHT22;3540;53.242;10.408;2022-12-29T05:22:21;9.00;99.90
7000;DHT22;3540;53.242;10.408;2022-12-29T05:24:47;9.00;99.90
7000;DHT22;3540;53.242;10.408;2022-12-29T05:27:12;9.00;99.90
7000;DHT22;3540;53.242;10.408;2022-12-29T05:29:38;9.00;99.90
7000;DHT22;3540;53.242;10.408;2022-12-29T05:32:04;9.00;99.90
7000;DHT22;3540;53.242;10.408;2022-12-29T05:34:29;9.00;99.90
7000;DHT22;3540;53.242;10.408;2022-12-29T05:36:55;9.10;99.90
7000;DHT22;3540;53.242;10.408;2022-12-29T05:39:21;9.10;99.90
7000;DHT22;3540;53.242;10.408;2022-12-29T05:41:46;9.00;99.90
7000;DHT22;3540;53.242;10.408;2022-12-29T05:44:12;9.10;99.90
7000;DHT22;3540;53.242;10.408;2022-12-29T05:46:37;9.10;99.90
7000;DHT22;3540;53.242;10.408;2022-12-29T05:49:03;9.10;99.90
7000;DHT22;3540;53.242;10.408;2022-12-29T05:51:29;9.10;99.90
7000;DHT22;3540;53.242;10.408;2022-12-29T05:53:55;9.10;99.90
7000;DHT22;3540;53.242;10.408;2022-12-29T05:56:20;9.10;99.90
7000;DHT22;3540;53.242;10.408;2022-12-29T05:58:46;9.10;99.90
7000;DHT22;3540;53.242;10.408;2022-12-29T06:01:11;9.10;99.90
7000;DHT22;3540;53.242;10.408;2022-12-29T06:03:37;9.10;99.90
7000;DHT22;3540;53.242;10.408;2022-12-29T06:06:03;9.10;99.90
7000;DHT22;3540;53.242;10.408;2022-12-29T06:08:28;9.20;99.90
7000;DHT22;3540;53.242;10.408;2022-12-29T06:10:54;9.20;99.90
7000;DHT22;3540;53.242;10.408;2022-12-29T06:13:20;9.20;99.90
7000;DHT22;3540;53.242;10.408;2022-12-29T06:15:48;9.20;99.90
7000;DHT22;3540;53.242;10.408;2022-12-29T06:18:14;9.20;99.90
7000;DHT22;3540;53.242;10.408;2022-12-29T06:20:40;9.20;99.90
7000;DHT22;3540;53.242;10.408;2022-12-29T06:23:05;9.20;99.90
7000;DHT22;3540;53.242;10.408;2022-12-29T06:25:31;9.20;99.90
7000;DHT22;3540;53.242;10.408;2022-12-29T06:27:57;9.20;99.90
7000;DHT22;3540;53.242;10.408;2022-12-29T06:30:23;9.10;99.90
7000;DHT22;3540;53.242;10.408;2022-12-29T06:32:49;9.10;99.90
7000;DHT22;3540;53.242;10.408;2022-12-29T06:35:15;9.10;99.90
7000;DHT22;3540;53.242;10.408;2022-12-29T06:37:40;9.20;99.90
7000;DHT22;3540;53.242;10.408;2022-12-29T06:40:06;9.20;99.90
7000;DHT22;3540;53.242;10.408;2022-12-29T06:42:32;9.20;99.90
7000;DHT22;3540;53.242;10.408;2022-12-29T06:44:58;9.20;99.90
7000;DHT22;3540;53.242;10.408;2022-12-29T06:47:25;9.20;99.90
7000;DHT22;3540;53.242;10.408;2022-12-29T06:49:51;9.20;99.90
7000;DHT22;3540;53.242;10.408;2022-12-29T06:52:17;9.20;99.90
7000;DHT22;3540;53.242;10.408;2022-12-29T06:54:42;9.20;99.90
7000;DHT22;3540;53.242;10.408;2022-12-29T06:57:08;9.20;99.90
7000;DHT22;3540;53.242;10.408;2022-12-29T06:59:34;9.30;99.90
7000;DHT22;3540;53.242;10.408;2022-12-29T07:02:01;9.30;99.90
7000;DHT22;3540;53.242;10.408;2022-12-29T07:04:27;9.30;99.90
7000;DHT22;3540;53.242;10.408;2022-12-29T07:06:53;9.40;99.90
7000;DHT22;3540;53.242;10.408;2022-12-29T07:09:19;9.40;99.90
7000;DHT22;3540;53.242;10.408;2022-12-29T07:11:45;9.50;99.90
7000;DHT22;3540;53.242;10.408;2022-12-29T07:14:11;9.50;99.90
7000;DHT22;3540;53.242;10.408;2022-12-29T07:16:37;9.60;99.90
7000;DHT22;3540;53.242;10.408;2022-12-29T07:19:03;9.70;99.90
7000;DHT22;3540;53.242;10.408;2022-12-29T07:21:28;9.70;99.90
7000;DHT22;3540;53.242;10.408;2022-12-29T07:23:54;9.80;99.90
7000;DHT22;3540;53.242;10.408;2022-12-29T07:26:20;9.80;99.90
7000;DHT22;3540;53.242;10.408;2022-12-29T07:28:46;9.80;99.90
7000;DHT22;3540;53.242;10.408;2022-12-29T07:31:16;9.70;99.90
7000;DHT22;3540;53.242;10.408;2022-12-29T07:33:42;9.70;99.90
7000;DHT22;3540;53.242;10.408;2022-12-29T07:36:09;9.70;99.90
7000;DHT22;3540;53.242;10.408;2022-12-29T07:38:35;9.70;99.90
7000;DHT22;3540;53.242;10.408;2022-12-29T07:41:01;9.70;99.90
7000;DHT22;3540;53.242;10.408;2022-12-29T07:43:26;9.70;99.90
7000;DHT22;3540;53.242;10.408;2022-12-29T07:45:52;9.70;99.90
7000;DHT22;3540;53.242;10.408;2022-12-29T07:48:17;9.70;99.90
7000;DHT22;3540;53.242;10.408;2022-12-29T07:50:43;9.70;99.90
7000;DHT22;3540;53.242;10.408;2022-12-29T07:53:09;9.60;99.90
7000;DHT22;3540;53.242;10.408;2022-12-29T07:55:34;9.70;99.90
7000;DHT22;3540;53.242;10.408;2022-12-29T07:58:00;9.60;99.90
7000;DHT22;3540;53.242;10.408;2022-12-29T08:00:26;9.60;99.90
7000;DHT22;3540;53.242;10.408;2022-12-29T08:02:51;9.60;99.90
7000;DHT22;3540;53.242;10.408;2022-12-29T08:05:17;9.60;99.90
7000;DHT22;3540;53.242;10.408;2022-12-29T08:07:44;9.60;99.90
7000;DHT22;3540;53.242;10.408;2022-12-29T08:10:10;9.60;99.90
7000;DHT22;3540;53.242;10.408;2022-12-29T08:12:38;9.50;99.90
7000;DHT22;3540;53.242;10.408;2022-12-29T08:15:04;9.50;99.90
7000;DHT22;3540;53.242;10.408;2022-12-29T08:17:30;9.50;99.90
7000;DHT22;3540;53.242;10.408;2022-12-29T08:19:55;9.40;99.90
7000;DHT22;3540;53.242;10.408;2022-12-29T08:22:21;9.40;99.90
7000;DHT22;3540;53.242;10.408;2022-12-29T08:24:47;9.40;99.90
7000;DHT22;3540;53.242;10.408;2022-12-29T08:27:13;9.40;99.90
7000;DHT22;3540;53.242;10.408;2022-12-29T08:29:39;9.40;99.90
7000;DHT22;3540;53.242;10.408;2022-12-29T08:32:04;9.30;99.90
7000;DHT22;3540;53.242;10.408;2022-12-29T08:34:31;9.30;99.90
7000;DHT22;3540;53.242;10.408;2022-12-29T08:36:56;9.30;99.90
7000;DHT22;3540;53.242;10.408;2022-12-29T08:39:22;9.30;99.90
7000;DHT22;3540;53.242;10.408;2022-12-29T08:41:48;9.30;99.90
7000;DHT22;3540;53.242;10.408;2022-12-29T08:44:13;9.30;99.90
7000;DHT22;3540;53.242;10.408;2022-12-29T08:46:39;9.30;99.90
7000;DHT22;3540;53.242;10.408;2022-12-29T08:49:05;9.30;99.90
7000;DHT22;3540;53.242;10.408;2022-12-29T08:51:30;9.30;99.90
7000;DHT22;3540;53.242;10.408;2022-12-29T08:53:56;9.30;99.90
7000;DHT22;3540;53.242;10.408;2022-12-29T08:56:23;9.30;99.90
7000;DHT22;3540;53.242;10.408;2022-12-29T08:58:49;9.30;99.90
7000;DHT22;3540;53.242;10.408;2022-12-29T09:01:15;9.30;99.90
7000;DHT22;3540;53.242;10.408;2022-12-29T09:03:41;9.40;99.90
7000;DHT22;3540;53.242;10.408;2022-12-29T09:06:07;9.50;99.90
7000;DHT22;3540;53.242;10.408;2022-12-29T09:08:32;9.50;99.90
7000;DHT22;3540;53.242;10.408;2022-12-29T09:13:38;9.60;99.90
7000;DHT22;3540;53.242;10.408;2022-12-29T09:16:04;9.70;99.90
7000;DHT22;3540;53.242;10.408;2022-12-29T09:18:30;9.60;99.90
7000;DHT22;3540;53.242;10.408;2022-12-29T09:21:01;9.50;99.90
7000;DHT22;3540;53.242;10.408;2022-12-29T09:23:27;9.50;99.90
7000;DHT22;3540;53.242;10.408;2022-12-29T09:25:54;9.60;99.90
7000;DHT22;3540;53.242;10.408;2022-12-29T09:28:20;9.60;99.90
7000;DHT22;3540;53.242;10.408;2022-12-29T09:30:46;9.60;99.90
7000;DHT22;3540;53.242;10.408;2022-12-29T09:33:12;9.70;99.90
7000;DHT22;3540;53.242;10.408;2022-12-29T09:35:44;9.70;99.90
7000;DHT22;3540;53.242;10.408;2022-12-29T09:38:10;9.70;99.90
7000;DHT22;3540;53.242;10.408;2022-12-29T09:40:36;9.60;99.90
7000;DHT22;3540;53.242;10.408;2022-12-29T09:46:35;9.60;99.90
7000;DHT22;3540;53.242;10.408;2022-12-29T09:51:44;9.60;99.90
7000;DHT22;3540;53.242;10.408;2022-12-29T09:54:45;9.60;99.90
7000;DHT22;3540;53.242;10.408;2022-12-29T09:57:38;9.60;99.90
7000;DHT22;3540;53.242;10.408;2022-12-29T10:00:14;9.70;99.90
7000;DHT22;3540;53.242;10.408;2022-12-29T10:02:56;9.80;99.90
7000;DHT22;3540;53.242;10.408;2022-12-29T10:05:59;9.90;99.90
7000;DHT22;3540;53.242;10.408;2022-12-29T10:08:47;10.00;99.90
7000;DHT22;3540;53.242;10.408;2022-12-29T10:22:13;10.20;99.90
7000;DHT22;3540;53.242;10.408;2022-12-29T10:24:45;10.20;99.90
7000;DHT22;3540;53.242;10.408;2022-12-29T10:27:13;10.20;99.90
7000;DHT22;3540;53.242;10.408;2022-12-29T10:29:45;10.40;99.90
7000;DHT22;3540;53.242;10.408;2022-12-29T10:35:09;10.40;99.90
7000;DHT22;3540;53.242;10.408;2022-12-29T10:38:03;10.40;99.90
7000;DHT22;3540;53.242;10.408;2022-12-29T10:40:48;10.50;99.90
7000;DHT22;3540;53.242;10.408;2022-12-29T10:45:53;10.50;99.90
7000;DHT22;3540;53.242;10.408;2022-12-29T10:48:22;10.50;99.90
7000;DHT22;3540;53.242;10.408;2022-12-29T10:50:50;10.50;99.90
7000;DHT22;3540;53.242;10.408;2022-12-29T10:53:27;10.60;99.90
7000;DHT22;3540;53.242;10.408;2022-12-29T10:55:55;10.70;99.90
7000;DHT22;3540;53.242;10.408;2022-12-29T10:58:22;10.60;99.90
7000;DHT22;3540;53.242;10.408;2022-12-29T11:00:52;10.50;99.90
7000;DHT22;3540;53.242;10.408;2022-12-29T11:06:26;10.80;99.90
7000;DHT22;3540;53.242;10.408;2022-12-29T11:09:23;10.80;99.90
7000;DHT22;3540;53.242;10.408;2022-12-29T11:11:49;10.80;99.90
7000;DHT22;3540;53.242;10.408;2022-12-29T11:14:21;10.90;99.90
7000;DHT22;3540;53.242;10.408;2022-12-29T11:17:02;10.90;99.90
7000;DHT22;3540;53.242;10.408;2022-12-29T11:19:30;10.80;99.90
7000;DHT22;3540;53.242;10.408;2022-12-29T11:22:20;10.90;99.90
7000;DHT22;3540;53.242;10.408;2022-12-29T11:24:47;11.10;99.90
7000;DHT22;3540;53.242;10.408;2022-12-29T11:27:21;11.20;99.90
7000;DHT22;3540;53.242;10.408;2022-12-29T11:29:52;11.10;99.90
7000;DHT22;3540;53.242;10.408;2022-12-29T11:32:26;11.10;99.90
7000;DHT22;3540;53.242;10.408;2022-12-29T11:34:52;11.10;99.90
7000;DHT22;3540;53.242;10.408;2022-12-29T11:37:27;11.10;99.90
7000;DHT22;3540;53.242;10.408;2022-12-29T11:42:52;10.90;99.90
7000;DHT22;3540;53.242;10.408;2022-12-29T11:45:22;10.90;99.90
7000;DHT22;3540;53.242;10.408;2022-12-29T11:47:54;10.90;99.90
7000;DHT22;3540;53.242;10.408;2022-12-29T11:50:29;10.90;99.90
7000;DHT22;3540;53.242;10.408;2022-12-29T11:55:27;10.80;99.90
7000;DHT22;3540;53.242;10.408;2022-12-29T11:57:55;10.80;99.90
7000;DHT22;3540;53.242;10.408;2022-12-29T12:00:24;10.80;99.90
7000;DHT22;3540;53.242;10.408;2022-12-29T12:02:56;10.80;99.90
7000;DHT22;3540;53.242;10.408;2022-12-29T12:05:43;10.80;99.90
7000;DHT22;3540;53.242;10.408;2022-12-29T12:08:34;10.80;99.90
7000;DHT22;3540;53.242;10.408;2022-12-29T12:11:24;10.90;99.90
7000;DHT22;3540;53.242;10.408;2022-12-29T12:14:04;11.00;99.90
7000;DHT22;3540;53.242;10.408;2022-12-29T12:16:53;11.10;99.90
7000;DHT22;3540;53.242;10.408;2022-12-29T12:19:43;11.10;99.90
7000;DHT22;3540;53.242;10.408;2022-12-29T12:22:37;11.20;99.90
7000;DHT22;3540;53.242;10.408;2022-12-29T12:25:23;11.20;99.90
7000;DHT22;3540;53.242;10.408;2022-12-29T12:27:57;11.00;99.90
7000;DHT22;3540;53.242;10.408;2022-12-29T12:30:27;11.10;99.90
7000;DHT22;3540;53.242;10.408;2022-12-29T12:55:28;11.10;99.90
7000;DHT22;3540;53.242;10.408;2022-12-29T13:03:44;11.10;99.90
7000;DHT22;3540;53.242;10.408;2022-12-29T13:06:44;11.10;99.90
7000;DHT22;3540;53.242;10.408;2022-12-29T13:09:48;11.10;99.90
7000;DHT22;3540;53.242;10.408;2022-12-29T13:12:20;11.10;99.90
7000;DHT22;3540;53.242;10.408;2022-12-29T13:20:35;11.20;99.90
7000;DHT22;3540;53.242;10.408;2022-12-29T13:23:05;11.10;99.90
7000;DHT22;3540;53.242;10.408;2022-12-29T13:31:04;11.10;99.90
7000;DHT22;3540;53.242;10.408;2022-12-29T13:36:45;11.10;99.90
7000;DHT22;3540;53.242;10.408;2022-12-29T13:39:19;11.10;99.90
7000;DHT22;3540;53.242;10.408;2022-12-29T13:41:51;11.00;99.90
7000;DHT22;3540;53.242;10.408;2022-12-29T13:44:26;11.00;99.90
7000;DHT22;3540;53.242;10.408;2022-12-29T13:46:54;11.00;99.90
7000;DHT22;3540;53.242;10.408;2022-12-29T13:49:22;10.90;99.90
7000;DHT22;3540;53.242;10.408;2022-12-29T13:51:54;11.00;99.90
7000;DHT22;3540;53.242;10.408;2022-12-29T13:58:00;10.90;99.90
7000;DHT22;3540;53.242;10.408;2022-12-29T14:00:23;10.90;99.90
7000;DHT22;3540;53.242;10.408;2022-12-29T14:05:37;10.90;99.90
7000;DHT22;3540;53.242;10.408;2022-12-29T14:08:15;10.90;99.90
7000;DHT22;3540;53.242;10.408;2022-12-29T14:10:49;11.00;99.90
7000;DHT22;3540;53.242;10.408;2022-12-29T14:13:25;11.00;99.90
7000;DHT22;3540;53.242;10.408;2022-12-29T14:15:54;11.00;99.90
7000;DHT22;3540;53.242;10.408;2022-12-29T14:18:22;10.90;99.90
7000;DHT22;3540;53.242;10.408;2022-12-29T14:20:57;11.00;99.90
7000;DHT22;3540;53.242;10.408;2022-12-29T14:23:35;11.10;99.90
7000;DHT22;3540;53.242;10.408;2022-12-29T14:28:35;11.00;99.90
7000;DHT22;3540;53.242;10.408;2022-12-29T14:31:42;11.00;99.90
7000;DHT22;3540;53.242;10.408;2022-12-29T14:36:57;10.90;99.90
7000;DHT22;3540;53.242;10.408;2022-12-29T14:44:34;10.70;99.90
7000;DHT22;3540;53.242;10.408;2022-12-29T14:47:20;10.70;99.90
7000;DHT22;3540;53.242;10.408;2022-12-29T14:49:46;10.50;99.90
7000;DHT22;3540;53.242;10.408;2022-12-29T14:52:24;10.50;99.90
7000;DHT22;3540;53.242;10.408;2022-12-29T14:57:35;10.50;99.90
7000;DHT22;3540;53.242;10.408;2022-12-29T15:00:21;10.50;99.90
7000;DHT22;3540;53.242;10.408;2022-12-29T15:03:02;10.40;99.90
7000;DHT22;3540;53.242;10.408;2022-12-29T15:05:45;10.40;99.90
7000;DHT22;3540;53.242;10.408;2022-12-29T15:08:13;10.20;99.90
7000;DHT22;3540;53.242;10.408;2022-12-29T15:10:47;10.20;99.90
7000;DHT22;3540;53.242;10.408;2022-12-29T15:13:22;10.10;99.90
7000;DHT22;3540;53.242;10.408;2022-12-29T15:15:48;10.10;99.90
7000;DHT22;3540;53.242;10.408;2022-12-29T15:18:40;9.90;99.90
7000;DHT22;3540;53.242;10.408;2022-12-29T15:21:13;9.90;99.90
7000;DHT22;3540;53.242;10.408;2022-12-29T15:23:42;9.80;99.90
7000;DHT22;3540;53.242;10.408;2022-12-29T15:26:09;9.70;99.90
7000;DHT22;3540;53.242;10.408;2022-12-29T15:28:46;9.70;99.90
7000;DHT22;3540;53.242;10.408;2022-12-29T15:31:19;9.60;99.90
7000;DHT22;3540;53.242;10.408;2022-12-29T15:33:50;9.60;99.90
7000;DHT22;3540;53.242;10.408;2022-12-29T15:36:25;9.60;99.90
7000;DHT22;3540;53.242;10.408;2022-12-29T15:38:52;9.60;99.90
7000;DHT22;3540;53.242;10.408;2022-12-29T15:46:33;9.50;99.90
7000;DHT22;3540;53.242;10.408;2022-12-29T15:48:59;9.60;99.90
7000;DHT22;3540;53.242;10.408;2022-12-29T15:51:35;9.50;99.90
7000;DHT22;3540;53.242;10.408;2022-12-29T15:54:01;9.50;99.90
7000;DHT22;3540;53.242;10.408;2022-12-29T15:56:31;9.50;99.90
7000;DHT22;3540;53.242;10.408;2022-12-29T15:58:58;9.40;99.90
7000;DHT22;3540;53.242;10.408;2022-12-29T16:01:28;9.40;99.90
7000;DHT22;3540;53.242;10.408;2022-12-29T16:03:56;9.30;99.90
7000;DHT22;3540;53.242;10.408;2022-12-29T16:09:18;9.20;99.90
7000;DHT22;3540;53.242;10.408;2022-12-29T16:11:51;9.20;99.90
7000;DHT22;3540;53.242;10.408;2022-12-29T16:14:21;9.10;99.90
7000;DHT22;3540;53.242;10.408;2022-12-29T16:16:49;9.10;99.90
7000;DHT22;3540;53.242;10.408;2022-12-29T16:19:24;9.00;99.90
7000;DHT22;3540;53.242;10.408;2022-12-29T16:21:52;9.00;99.90
7000;DHT22;3540;53.242;10.408;2022-12-29T16:24:20;9.00;99.90
7000;DHT22;3540;53.242;10.408;2022-12-29T16:27:06;9.00;99.90
7000;DHT22;3540;53.242;10.408;2022-12-29T16:29:32;8.90;99.90
7000;DHT22;3540;53.242;10.408;2022-12-29T16:31:59;8.90;99.90
7000;DHT22;3540;53.242;10.408;2022-12-29T16:34:33;8.90;99.90
7000;DHT22;3540;53.242;10.408;2022-12-29T16:37:00;8.90;99.90
7000;DHT22;3540;53.242;10.408;2022-12-29T16:42:01;8.90;99.90
7000;DHT22;3540;53.242;10.408;2022-12-29T16:44:46;8.90;99.90
7000;DHT22;3540;53.242;10.408;2022-12-29T16:49:40;9.00;99.90
7000;DHT22;3540;53.242;10.408;2022-12-29T16:52:12;9.10;99.90
7000;DHT22;3540;53.242;10.408;2022-12-29T16:54:39;9.10;99.90
7000;DHT22;3540;53.242;10.408;2022-12-29T16:57:06;9.00;99.90
7000;DHT22;3540;53.242;10.408;2022-12-29T16:59:33;9.00;99.90
7000;DHT22;3540;53.242;10.408;2022-12-29T17:02:01;9.00;99.90
7000;DHT22;3540;53.242;10.408;2022-12-29T17:04:30;9.00;99.90
7000;DHT22;3540;53.242;10.408;2022-12-29T17:06:56;9.00;99.90
7000;DHT22;3540;53.242;10.408;2022-12-29T17:09:27;9.00;99.90
7000;DHT22;3540;53.242;10.408;2022-12-29T17:11:55;8.90;99.90
7000;DHT22;3540;53.242;10.408;2022-12-29T17:20:05;8.90;99.90
7000;DHT22;3540;53.242;10.408;2022-12-29T17:22:31;8.90;99.90
7000;DHT22;3540;53.242;10.408;2022-12-29T17:24:58;8.90;99.90
7000;DHT22;3540;53.242;10.408;2022-12-29T17:27:28;8.90;99.90
7000;DHT22;3540;53.242;10.408;2022-12-29T17:30:01;8.90;99.90
7000;DHT22;3540;53.242;10.408;2022-12-29T17:32:28;8.90;99.90
7000;DHT22;3540;53.242;10.408;2022-12-29T17:34:54;8.80;99.90
7000;DHT22;3540;53.242;10.408;2022-12-29T17:37:32;8.70;99.90
7000;DHT22;3540;53.242;10.408;2022-12-29T17:39:58;8.70;99.90
7000;DHT22;3540;53.242;10.408;2022-12-29T17:42:24;8.60;99.90
7000;DHT22;3540;53.242;10.408;2022-12-29T17:44:49;8.50;99.90
7000;DHT22;3540;53.242;10.408;2022-12-29T17:47:15;8.50;99.90
7000;DHT22;3540;53.242;10.408;2022-12-29T17:49:41;8.40;99.90
7000;DHT22;3540;53.242;10.408;2022-12-29T17:52:15;8.40;99.90
7000;DHT22;3540;53.242;10.408;2022-12-29T17:54:48;8.50;99.90
7000;DHT22;3540;53.242;10.408;2022-12-29T17:57:15;8.50;99.90
7000;DHT22;3540;53.242;10.408;2022-12-29T17:59:42;8.60;99.90
7000;DHT22;3540;53.242;10.408;2022-12-29T18:02:24;8.60;99.90
7000;DHT22;3540;53.242;10.408;2022-12-29T18:04:50;8.60;99.90
7000;DHT22;3540;53.242;10.408;2022-12-29T18:07:16;8.60;99.90
7000;DHT22;3540;53.242;10.408;2022-12-29T18:09:41;8.60;99.90
7000;DHT22;3540;53.242;10.408;2022-12-29T18:12:27;8.60;99.90
7000;DHT22;3540;53.242;10.408;2022-12-29T18:14:54;8.60;99.90
7000;DHT22;3540;53.242;10.408;2022-12-29T18:17:19;8.50;99.90
7000;DHT22;3540;53.242;10.408;2022-12-29T18:19:45;8.60;99.90
7000;DHT22;3540;53.242;10.408;2022-12-29T18:22:11;8.50;99.90
7000;DHT22;3540;53.242;10.408;2022-12-29T18:24:36;8.50;99.90
7000;DHT22;3540;53.242;10.408;2022-12-29T18:27:12;8.50;99.90
7000;DHT22;3540;53.242;10.408;2022-12-29T18:29:38;8.40;99.90
7000;DHT22;3540;53.242;10.408;2022-12-29T18:32:05;8.40;99.90
7000;DHT22;3540;53.242;10.408;2022-12-29T18:34:32;8.40;99.90
7000;DHT22;3540;53.242;10.408;2022-12-29T18:36:58;8.40;99.90
7000;DHT22;3540;53.242;10.408;2022-12-29T18:39:24;8.40;99.90
7000;DHT22;3540;53.242;10.408;2022-12-29T18:41:49;8.50;99.90
7000;DHT22;3540;53.242;10.408;2022-12-29T18:44:15;8.60;99.90